Time;durP1;ratioP1;P1;durP2;ratioP2;P2;SDS_P1;SDS_P2;PMS_P1;PMS_P2;Temp;Humidity;BMP_temperature;BMP_pressure;BME280_temperature;BME280_humidity;BME280_pressure;Samples;Min_cycle;Max_cycle;Signal;HPM_P1;HPM_P2
2021/03/25 00:01:30;;;;;;;47.03;33.23;;;;;;;10.13;60.74;101576.34;5079050;28;20479;-75
2021/03/25 00:03:56;;;;;;;46.93;34.03;;;;;;;9.92;61.01;101569.78;5062745;28;20195;-76
2021/03/25 00:06:22;;;;;;;51.77;36.03;;;;;;;9.88;61.38;101574.00;5080277;28;20446;-77
2021/03/25 00:08:48;;;;;;;46.27;34.50;;;;;;;10.11;59.70;101579.78;5080985;28;20250;-77
2021/03/25 00:11:13;;;;;;;55.00;39.30;;;;;;;10.07;60.22;101577.97;5062745;28;20788;-75
2021/03/25 00:13:39;;;;;;;50.53;36.37;;;;;;;10.20;60.25;101573.06;5080789;28;20183;-77
2021/03/25 00:16:05;;;;;;;50.00;37.00;;;;;;;10.09;60.91;101578.00;5081026;28;20238;-75
2021/03/25 00:18:31;;;;;;;56.20;36.47;;;;;;;9.84;61.49;101572.16;5079995;28;20557;-74
2021/03/25 00:20:57;;;;;;;56.43;37.53;;;;;;;9.85;61.54;101570.44;5080576;28;20180;-75
2021/03/25 00:23:23;;;;;;;63.17;40.17;;;;;;;9.65;62.45;101572.50;5080913;28;20820;-74
2021/03/25 00:25:48;;;;;;;59.50;39.93;;;;;;;9.66;62.45;101572.56;5057955;28;20233;-76
2021/03/25 00:28:15;;;;;;;63.17;40.10;;;;;;;9.66;62.87;101562.16;5057671;28;20212;-77
2021/03/25 00:30:40;;;;;;;55.60;41.13;;;;;;;9.67;62.74;101557.81;5060235;28;20271;-75
2021/03/25 00:33:08;;;;;;;64.83;44.27;;;;;;;9.86;62.27;101559.19;5060351;28;20416;-73
2021/03/25 00:35:34;;;;;;;62.00;40.57;;;;;;;9.97;61.87;101562.94;5060671;28;20531;-71
2021/03/25 00:38:00;;;;;;;66.90;44.87;;;;;;;9.85;61.85;101563.53;5060531;28;20416;-71
2021/03/25 00:40:25;;;;;;;61.60;42.30;;;;;;;9.91;61.59;101561.06;5059354;28;20189;-71
2021/03/25 00:42:51;;;;;;;57.40;40.47;;;;;;;9.46;63.28;101564.22;5059392;28;20177;-71
2021/03/25 00:45:28;;;;;;;63.03;41.03;;;;;;;9.63;62.81;101569.88;5059997;28;20173;-75
2021/03/25 00:47:54;;;;;;;65.00;43.10;;;;;;;9.64;62.58;101566.44;5059588;28;20208;-77
2021/03/25 00:50:35;;;;;;;71.93;43.83;;;;;;;9.55;62.93;101567.06;5058789;28;20838;-75
2021/03/25 00:53:00;;;;;;;68.47;43.90;;;;;;;9.51;63.63;101570.44;5059942;28;20189;-75
2021/03/25 00:55:26;;;;;;;75.50;46.27;;;;;;;9.29;64.05;101565.47;5060110;28;20420;-75
2021/03/25 00:57:52;;;;;;;77.13;46.13;;;;;;;9.49;63.71;101568.63;5060276;28;20194;-75
2021/03/25 01:00:24;;;;;;;70.93;46.53;;;;;;;9.54;63.42;101570.50;5058841;28;20216;-76
2021/03/25 01:02:49;;;;;;;69.83;44.97;;;;;;;9.73;62.96;101566.69;5060293;28;20184;-75
2021/03/25 01:05:17;;;;;;;79.07;47.33;;;;;;;9.44;63.98;101572.00;5060086;28;20806;-75
2021/03/25 01:07:42;;;;;;;73.57;44.73;;;;;;;9.54;63.54;101572.22;5064523;28;20217;-76
2021/03/25 01:10:24;;;;;;;77.23;45.23;;;;;;;9.66;63.80;101569.06;5062778;28;20490;-76
2021/03/25 01:12:49;;;;;;;70.90;46.50;;;;;;;9.30;64.61;101570.72;5059865;28;20183;-76
2021/03/25 01:15:15;;;;;;;70.60;45.23;;;;;;;9.25;64.89;101556.69;5058811;28;20519;-76
2021/03/25 01:17:49;;;;;;;82.67;45.70;;;;;;;9.17;64.88;101566.00;5058859;28;20185;-76
2021/03/25 01:20:18;;;;;;;79.67;46.63;;;;;;;9.44;64.55;101560.69;5059155;28;20594;-77
2021/03/25 01:22:43;;;;;;;77.90;48.87;;;;;;;9.28;64.53;101569.78;5059517;28;20420;-76
2021/03/25 01:25:09;;;;;;;81.43;47.90;;;;;;;9.20;64.60;101561.78;5071914;28;20486;-75
2021/03/25 01:27:34;;;;;;;81.13;47.87;;;;;;;9.34;64.68;101564.75;5079168;28;20205;-76
2021/03/25 01:30:01;;;;;;;72.43;47.47;;;;;;;9.34;65.13;101567.34;5078624;28;20457;-75
2021/03/25 01:32:26;;;;;;;85.47;47.67;;;;;;;9.46;64.92;101565.91;5079157;28;20538;-76
2021/03/25 01:34:52;;;;;;;87.70;47.77;;;;;;;9.31;64.73;101569.88;5079736;28;20453;-75
2021/03/25 01:37:17;;;;;;;75.00;47.63;;;;;;;9.30;65.25;101570.72;5078720;28;20267;-76
2021/03/25 01:39:42;;;;;;;76.20;47.23;;;;;;;9.06;65.44;101576.09;5079508;28;20205;-76
2021/03/25 01:42:26;;;;;;;80.13;50.37;;;;;;;9.06;65.85;101579.56;5079577;28;20550;-74
2021/03/25 01:44:52;;;;;;;80.53;46.60;;;;;;;9.05;66.20;101577.81;5078871;28;20476;-74
2021/03/25 01:47:17;;;;;;;93.43;51.70;;;;;;;9.05;65.85;101577.81;5078122;28;20557;-74
2021/03/25 01:49:43;;;;;;;83.13;50.00;;;;;;;9.14;65.92;101569.38;5079525;28;20177;-75
2021/03/25 01:52:33;;;;;;;73.40;47.17;;;;;;;8.90;66.27;101577.34;5078876;28;20169;-75
2021/03/25 01:54:58;;;;;;;79.33;49.50;;;;;;;9.25;65.48;101574.91;5078684;28;20191;-75
2021/03/25 01:57:26;;;;;;;79.20;49.40;;;;;;;9.29;64.92;101568.94;5076752;28;20770;-75
2021/03/25 02:00:04;;;;;;;80.50;49.50;;;;;;;9.30;65.15;101567.25;5078653;28;20181;-74
2021/03/25 02:02:53;;;;;;;86.40;52.17;;;;;;;9.16;65.31;101569.44;5061436;28;20419;-75
2021/03/25 02:05:49;;;;;;;79.30;48.37;;;;;;;9.39;64.84;101567.47;5061426;28;20461;-76
2021/03/25 02:08:24;;;;;;;76.30;45.97;;;;;;;9.34;64.60;101563.88;5060755;28;20510;-75
2021/03/25 02:11:13;;;;;;;74.93;46.13;;;;;;;9.74;63.06;101563.25;5078593;28;20541;-75
2021/03/25 02:14:06;;;;;;;75.17;47.83;;;;;;;9.59;63.54;101565.41;5078737;28;20617;-75
2021/03/25 02:16:42;;;;;;;85.73;49.40;;;;;;;9.22;64.62;101561.81;5056515;28;20486;-75
2021/03/25 02:19:11;;;;;;;75.53;46.27;;;;;;;9.17;65.14;101566.00;5060460;28;20533;-75
2021/03/25 02:22:08;;;;;;;71.57;45.80;;;;;;;9.09;65.04;101566.66;5061237;28;20430;-75
2021/03/25 02:25:00;;;;;;;66.03;44.30;;;;;;;9.33;64.79;101557.78;5078389;28;20494;-76
2021/03/25 02:27:47;;;;;;;70.50;44.90;;;;;;;9.29;64.71;101555.94;5077613;28;20549;-76
2021/03/25 02:30:16;;;;;;;63.80;42.97;;;;;;;9.36;65.05;101556.97;5078346;28;20669;-74
2021/03/25 02:32:49;;;;;;;63.40;43.90;;;;;;;9.39;63.94;101551.84;5060855;28;20545;-76
2021/03/25 02:35:20;;;;;;;61.70;42.57;;;;;;;9.41;64.04;101561.47;5061314;28;20745;-75
2021/03/25 02:37:48;;;;;;;69.33;41.90;;;;;;;9.37;64.55;101556.16;5077383;28;20435;-77
2021/03/25 02:40:26;;;;;;;63.90;40.43;;;;;;;9.25;64.67;101552.38;5061229;28;20411;-76
2021/03/25 02:43:17;;;;;;;60.43;43.03;;;;;;;9.14;65.38;101547.72;5060803;28;20665;-76
2021/03/25 02:45:46;;;;;;;68.13;40.43;;;;;;;9.60;63.18;101552.44;5060927;28;20413;-76
2021/03/25 02:48:18;;;;;;;61.83;40.67;;;;;;;9.19;64.79;101551.31;5065060;28;20466;-76
2021/03/25 02:50:47;;;;;;;60.50;41.73;;;;;;;9.58;63.42;101548.94;5075332;28;20499;-75
2021/03/25 02:53:22;;;;;;;60.20;42.20;;;;;;;9.27;64.31;101555.88;5077811;28;20529;-75
2021/03/25 02:55:49;;;;;;;58.00;41.07;;;;;;;9.59;63.03;101558.50;5060943;28;20763;-75
2021/03/25 02:58:18;;;;;;;65.73;41.33;;;;;;;9.66;63.71;101554.34;5042828;28;20482;-75
2021/03/25 03:00:47;;;;;;;65.13;43.67;;;;;;;9.83;62.30;101556.50;5060922;28;20682;-75
2021/03/25 03:03:21;;;;;;;62.00;41.93;;;;;;;9.56;63.10;101554.94;5061100;28;20399;-76
2021/03/25 03:05:48;;;;;;;62.10;41.53;;;;;;;9.29;63.87;101545.53;5084895;28;20434;-78
2021/03/25 03:08:23;;;;;;;57.30;41.07;;;;;;;9.07;64.84;101547.53;5068130;28;20474;-78
2021/03/25 03:11:15;;;;;;;63.00;43.60;;;;;;;9.42;64.24;101552.84;5065115;28;20418;-77
2021/03/25 03:13:45;;;;;;;65.40;42.70;;;;;;;9.53;63.24;101549.66;5081516;28;20439;-78
2021/03/25 03:16:24;;;;;;;61.03;42.37;;;;;;;9.69;63.30;101545.75;5065119;28;20425;-76
2021/03/25 03:18:56;;;;;;;58.70;41.97;;;;;;;9.33;64.25;101554.31;5063803;28;20469;-76
2021/03/25 03:21:28;;;;;;;62.83;43.40;;;;;;;9.47;63.75;101558.19;5064440;28;20699;-76
2021/03/25 03:23:54;;;;;;;60.97;42.87;;;;;;;9.28;64.26;101548.97;5081831;28;20458;-76
2021/03/25 03:26:24;;;;;;;66.90;44.47;;;;;;;9.58;63.88;101543.72;5081717;28;20450;-75
2021/03/25 03:28:53;;;;;;;61.20;41.70;;;;;;;9.55;63.81;101547.97;5063446;28;20212;-75
2021/03/25 03:31:24;;;;;;;63.50;43.60;;;;;;;9.55;63.45;101548.84;5063830;28;20843;-75
2021/03/25 03:33:53;;;;;;;69.37;42.57;;;;;;;9.18;64.38;101546.94;5064416;28;20418;-75
2021/03/25 03:36:23;;;;;;;70.57;45.60;;;;;;;9.43;63.69;101545.91;5081307;28;20434;-75
2021/03/25 03:38:51;;;;;;;64.27;44.40;;;;;;;9.21;64.47;101537.50;5063280;28;20470;-75
2021/03/25 03:41:23;;;;;;;77.33;47.53;;;;;;;9.34;64.29;101551.75;5081477;28;20454;-76
2021/03/25 03:43:49;;;;;;;79.07;47.90;;;;;;;9.08;65.28;101549.28;5064528;28;20407;-74
2021/03/25 03:46:23;;;;;;;71.57;47.13;;;;;;;8.80;66.13;101555.41;5081461;28;20414;-75
2021/03/25 03:48:56;;;;;;;72.57;46.90;;;;;;;8.80;66.99;101549.31;5062072;28;20882;-75
2021/03/25 03:51:56;;;;;;;78.80;50.20;;;;;;;8.83;65.97;101552.88;5080442;28;20465;-76
2021/03/25 03:54:21;;;;;;;77.93;47.50;;;;;;;8.80;66.11;101544.13;5061686;28;20431;-77
2021/03/25 03:57:14;;;;;;;79.40;51.47;;;;;;;9.18;64.53;101541.75;5081286;28;20650;-75
2021/03/25 03:59:46;;;;;;;79.43;48.10;;;;;;;8.76;66.38;101543.13;5028358;28;20223;-75
2021/03/25 04:02:26;;;;;;;78.83;48.40;;;;;;;8.83;66.29;101552.88;5080622;28;20458;-74
2021/03/25 04:05:16;;;;;;;72.50;47.30;;;;;;;8.98;65.60;101552.44;5063826;28;20414;-74
2021/03/25 04:07:46;;;;;;;72.63;47.67;;;;;;;8.89;65.25;101550.47;5079134;28;20500;-74
2021/03/25 04:10:18;;;;;;;70.50;48.33;;;;;;;9.12;64.96;101550.28;5063608;28;20464;-75
2021/03/25 04:12:48;;;;;;;77.77;49.87;;;;;;;8.66;66.45;101547.19;5063564;28;20450;-74
2021/03/25 04:15:20;;;;;;;81.63;50.23;;;;;;;8.52;66.96;101543.28;5063516;28;20682;-75
2021/03/25 04:17:55;;;;;;;74.97;48.40;;;;;;;8.64;66.24;101541.03;5079720;28;20496;-75
2021/03/25 04:20:22;;;;;;;77.07;46.23;;;;;;;8.97;64.98;101536.81;5063416;28;20480;-75
2021/03/25 04:22:54;;;;;;;72.80;47.47;;;;;;;9.09;65.34;101548.47;5063207;28;20506;-75
2021/03/25 04:25:26;;;;;;;75.37;45.83;;;;;;;9.35;64.59;101550.91;5063102;28;20478;-74
2021/03/25 04:28:16;;;;;;;74.27;47.23;;;;;;;8.90;65.36;101541.84;5061732;28;20571;-75
2021/03/25 04:30:46;;;;;;;71.60;47.87;;;;;;;9.26;64.82;101548.06;5063824;28;20436;-75
2021/03/25 04:33:19;;;;;;;67.33;46.07;;;;;;;9.08;65.38;101553.63;5080232;28;20730;-75
2021/03/25 04:35:45;;;;;;;72.57;47.60;;;;;;;8.99;65.23;101561.16;5063122;28;20423;-75
2021/03/25 04:38:17;;;;;;;66.53;47.17;;;;;;;8.87;65.70;101557.34;5062763;28;20529;-75
2021/03/25 04:40:42;;;;;;;70.37;44.63;;;;;;;9.33;64.87;101552.56;5063279;28;20479;-75
2021/03/25 04:43:10;;;;;;;61.90;43.97;;;;;;;8.88;65.64;101561.69;5063040;28;20451;-75
2021/03/25 04:45:57;;;;;;;70.47;46.27;;;;;;;9.04;65.15;101564.78;5079810;28;20208;-76
2021/03/25 04:48:25;;;;;;;69.83;45.20;;;;;;;8.93;64.77;101567.94;5062583;28;20467;-75
2021/03/25 04:51:06;;;;;;;71.90;47.47;;;;;;;8.58;66.66;101572.94;5063230;28;20805;-75
2021/03/25 04:53:35;;;;;;;67.67;45.77;;;;;;;9.12;64.82;101562.38;5062704;28;20510;-75
2021/03/25 04:56:02;;;;;;;70.00;45.13;;;;;;;9.48;63.45;101566.84;5078649;28;20445;-74
2021/03/25 04:58:32;;;;;;;70.10;46.73;;;;;;;9.58;63.31;101563.69;5080254;28;20513;-76
2021/03/25 05:01:10;;;;;;;68.73;46.60;;;;;;;9.47;63.46;101565.09;5079243;28;20459;-75
2021/03/25 05:03:36;;;;;;;71.47;46.60;;;;;;;9.64;63.18;101555.16;5064321;28;20438;-76
2021/03/25 05:06:01;;;;;;;63.03;44.00;;;;;;;9.76;62.68;101560.66;5067771;28;20447;-74
2021/03/25 05:08:33;;;;;;;69.57;47.93;;;;;;;9.50;63.42;101559.97;5080321;28;20231;-77
2021/03/25 05:11:06;;;;;;;65.63;44.13;;;;;;;9.77;62.76;101565.91;5062551;28;20268;-71
2021/03/25 05:13:37;;;;;;;69.40;45.20;;;;;;;9.65;63.74;101573.41;5079020;28;20524;-77
2021/03/25 05:16:23;;;;;;;66.37;45.33;;;;;;;9.89;62.62;101564.47;5078721;28;20451;-72
2021/03/25 05:19:03;;;;;;;68.07;47.23;;;;;;;9.63;62.79;101572.47;5059049;28;20416;-75
2021/03/25 05:21:44;;;;;;;64.37;43.07;;;;;;;9.76;63.37;101577.16;5045073;28;20417;-74
2021/03/25 05:24:19;;;;;;;64.13;43.93;;;;;;;9.12;64.36;101577.97;5061711;28;20846;-74
2021/03/25 05:26:48;;;;;;;60.37;42.30;;;;;;;9.24;64.52;101580.94;5079352;28;20494;-74
2021/03/25 05:29:14;;;;;;;63.83;41.90;;;;;;;9.69;64.00;101577.84;5061462;28;20416;-74
2021/03/25 05:31:42;;;;;;;65.83;43.30;;;;;;;9.64;63.70;101579.44;5077865;28;20431;-73
2021/03/25 05:34:08;;;;;;;62.00;41.90;;;;;;;9.68;63.55;101583.03;5061266;28;20435;-73
2021/03/25 05:36:34;;;;;;;60.53;43.07;;;;;;;9.83;63.33;101577.34;5079028;28;20437;-74
2021/03/25 05:39:00;;;;;;;60.20;41.10;;;;;;;9.94;62.76;101581.09;5076619;28;21288;-77
2021/03/25 05:41:46;;;;;;;60.47;42.80;;;;;;;9.86;63.30;101577.41;5078171;28;20452;-78
2021/03/25 05:44:27;;;;;;;59.47;40.90;;;;;;;10.05;62.59;101579.66;5045905;28;20184;-79
2021/03/25 05:47:08;;;;;;;61.13;40.50;;;;;;;9.88;62.50;101583.56;5079379;28;20506;-79
2021/03/25 05:49:41;;;;;;;62.30;42.70;;;;;;;9.63;63.22;101590.69;5077960;28;20427;-78
2021/03/25 05:52:25;;;;;;;64.47;42.83;;;;;;;9.71;63.41;101588.31;5061457;28;20419;-78
2021/03/25 05:55:03;;;;;;;62.90;40.73;;;;;;;9.97;62.78;101593.31;5062115;28;20671;-78
2021/03/25 05:58:07;;;;;;;57.33;40.10;;;;;;;9.95;63.05;101595.88;5079045;28;20415;-78
2021/03/25 06:00:58;;;;;;;62.33;41.73;;;;;;;10.25;61.55;101600.97;5064947;28;20439;-77
2021/03/25 06:03:26;;;;;;;60.57;40.80;;;;;;;10.04;62.11;101601.34;5078721;28;20431;-78
2021/03/25 06:05:56;;;;;;;65.53;40.90;;;;;;;10.20;61.77;101601.72;5078660;28;20419;-77
2021/03/25 06:08:34;;;;;;;56.80;39.17;;;;;;;10.35;61.14;101607.34;5078197;28;20466;-79
2021/03/25 06:11:05;;;;;;;55.87;39.73;;;;;;;10.52;60.93;101609.47;5059127;28;20453;-77
2021/03/25 06:13:40;;;;;;;57.33;38.17;;;;;;;10.62;60.59;101616.66;5061215;28;20443;-77
2021/03/25 06:16:18;;;;;;;56.20;39.40;;;;;;;9.85;62.57;101620.81;5061496;28;20434;-78
2021/03/25 06:18:58;;;;;;;59.83;38.37;;;;;;;10.38;61.16;101622.19;5077887;28;20409;-79
2021/03/25 06:21:58;;;;;;;58.47;38.30;;;;;;;9.64;63.30;101617.63;5061028;28;20515;-79
2021/03/25 06:24:54;;;;;;;56.67;38.03;;;;;;;9.80;63.87;101622.41;5060534;28;20879;-76
2021/03/25 06:27:42;;;;;;;54.07;37.90;;;;;;;9.98;62.70;101636.75;5077469;28;20470;-76
2021/03/25 06:30:17;;;;;;;57.80;37.63;;;;;;;10.17;62.34;101635.53;5061239;28;20703;-76
2021/03/25 06:33:14;;;;;;;60.57;40.57;;;;;;;9.71;63.95;101635.19;5059396;28;20468;-79
2021/03/25 06:35:46;;;;;;;55.63;37.07;;;;;;;9.88;63.11;101635.66;5077944;28;20480;-78
2021/03/25 06:38:31;;;;;;;55.83;37.40;;;;;;;9.71;63.79;101632.56;5061264;28;20406;-78
2021/03/25 06:41:12;;;;;;;55.80;37.27;;;;;;;10.01;62.96;101639.44;5077239;28;20923;-81
2021/03/25 06:43:51;;;;;;;53.20;38.10;;;;;;;10.08;62.56;101644.88;5078565;28;20414;-76
2021/03/25 06:46:22;;;;;;;63.67;37.83;;;;;;;9.39;64.93;101645.53;5060808;28;20423;-76
2021/03/25 06:48:49;;;;;;;56.60;37.27;;;;;;;9.60;64.14;101635.75;5060875;28;20473;-77
2021/03/25 06:51:17;;;;;;;58.23;38.90;;;;;;;9.78;63.62;101639.69;5078098;28;20864;-78
2021/03/25 06:53:42;;;;;;;59.53;38.90;;;;;;;9.14;64.95;101650.03;5078527;28;20514;-76
2021/03/25 06:56:10;;;;;;;61.40;39.77;;;;;;;9.63;63.88;101644.50;5077238;28;20439;-76
2021/03/25 06:58:45;;;;;;;55.23;38.10;;;;;;;9.51;64.55;101647.63;5060490;28;20264;-75
2021/03/25 07:01:20;;;;;;;58.40;38.10;;;;;;;9.53;64.34;101648.56;5060828;28;20513;-76
2021/03/25 07:03:47;;;;;;;66.37;41.13;;;;;;;9.21;65.66;101651.97;5088785;28;20433;-76
2021/03/25 07:06:12;;;;;;;55.00;38.20;;;;;;;9.50;65.41;101651.06;5061937;28;20502;-76
2021/03/25 07:08:38;;;;;;;60.13;39.20;;;;;;;9.59;65.88;101646.13;5076733;28;20546;-75
2021/03/25 07:11:14;;;;;;;63.50;39.73;;;;;;;9.41;65.00;101644.75;5077535;28;20526;-77
2021/03/25 07:13:43;;;;;;;55.23;35.67;;;;;;;9.60;64.84;101655.69;5058819;28;20200;-76
2021/03/25 07:16:10;;;;;;;50.90;33.10;;;;;;;9.61;64.41;101657.47;5047601;28;20510;-77
2021/03/25 07:19:06;;;;;;;50.43;33.50;;;;;;;9.68;64.32;101658.53;5044188;28;20435;-79
2021/03/25 07:21:46;;;;;;;51.97;34.63;;;;;;;9.43;65.04;101658.72;5073556;28;20427;-78
2021/03/25 07:24:28;;;;;;;52.17;33.67;;;;;;;9.61;64.89;101655.75;5045878;28;20987;-76
2021/03/25 07:27:08;;;;;;;39.07;27.43;;;;;;;10.20;62.57;101659.03;5059225;28;20690;-76
2021/03/25 07:29:36;;;;;;;47.37;31.77;;;;;;;9.87;62.67;101659.91;5057704;28;20470;-77
2021/03/25 07:32:05;;;;;;;41.13;28.13;;;;;;;9.59;63.88;101664.34;5063064;28;20816;-77
2021/03/25 07:34:37;;;;;;;44.40;30.10;;;;;;;9.82;63.51;101658.91;5058436;28;20466;-78
2021/03/25 07:37:04;;;;;;;42.87;30.50;;;;;;;9.60;64.14;101668.72;5054043;28;20526;-77
2021/03/25 07:39:40;;;;;;;45.80;32.07;;;;;;;9.58;63.57;101671.28;5057570;28;20412;-75
2021/03/25 07:42:06;;;;;;;49.27;29.90;;;;;;;9.44;64.17;101680.41;5064954;28;20496;-76
2021/03/25 07:44:38;;;;;;;54.20;32.53;;;;;;;9.60;63.91;101676.53;5051786;28;20494;-76
2021/03/25 07:47:26;;;;;;;51.90;34.50;;;;;;;9.58;63.73;101673.03;5074641;28;20201;-76
2021/03/25 07:49:51;;;;;;;48.03;32.93;;;;;;;9.85;63.49;101672.00;5047257;28;20459;-76
2021/03/25 07:52:31;;;;;;;50.20;31.60;;;;;;;9.46;64.18;101672.63;5065506;28;20439;-75
2021/03/25 07:55:18;;;;;;;48.57;31.83;;;;;;;9.73;63.77;101668.22;5074231;28;20176;-77
2021/03/25 07:57:45;;;;;;;48.13;31.63;;;;;;;10.06;62.93;101675.19;5078886;28;20431;-76
2021/03/25 08:00:19;;;;;;;41.97;31.37;;;;;;;10.04;62.02;101669.06;5076585;28;20530;-77
2021/03/25 08:02:45;;;;;;;47.50;33.90;;;;;;;10.08;61.98;101670.91;5067972;28;20707;-75
2021/03/25 08:05:22;;;;;;;47.77;30.60;;;;;;;10.15;61.46;101681.47;5066292;28;20871;-74
2021/03/25 08:07:50;;;;;;;45.43;31.20;;;;;;;10.04;61.72;101671.69;5065878;28;20485;-74
2021/03/25 08:10:30;;;;;;;47.70;30.60;;;;;;;9.78;62.42;101676.16;5062428;28;20440;-75
2021/03/25 08:13:01;;;;;;;44.87;29.70;;;;;;;10.24;60.83;101676.53;5063267;28;20471;-75
2021/03/25 08:15:31;;;;;;;53.57;36.37;;;;;;;10.03;62.03;101680.31;5060407;28;20440;-76
2021/03/25 08:18:09;;;;;;;54.37;34.73;;;;;;;9.84;61.68;101689.38;5050157;28;20472;-75
2021/03/25 08:20:40;;;;;;;46.00;33.00;;;;;;;10.35;60.24;101677.72;5053793;28;20477;-76
2021/03/25 08:23:33;;;;;;;51.83;34.13;;;;;;;10.49;60.31;101687.63;5060851;28;20430;-76
2021/03/25 08:26:10;;;;;;;42.67;28.17;;;;;;;9.81;61.17;101680.56;5072424;28;20526;-76
2021/03/25 08:28:49;;;;;;;39.60;28.73;;;;;;;10.30;61.07;101689.72;5078679;28;20586;-78
2021/03/25 08:31:24;;;;;;;48.10;31.40;;;;;;;10.04;60.57;101682.09;5062873;28;20828;-77
2021/03/25 08:34:03;;;;;;;40.90;29.50;;;;;;;11.20;56.79;101689.28;5079256;28;20468;-76
2021/03/25 08:36:33;;;;;;;38.30;29.10;;;;;;;11.88;55.17;101680.25;5079419;28;20419;-76
2021/03/25 08:39:27;;;;;;;40.10;29.43;;;;;;;11.84;55.49;101681.94;5071882;28;20478;-75
2021/03/25 08:42:11;;;;;;;33.80;26.13;;;;;;;12.13;54.82;101677.28;5077299;28;20824;-75
2021/03/25 08:45:05;;;;;;;40.03;29.50;;;;;;;11.92;54.89;101687.28;5053889;28;20435;-76
2021/03/25 08:47:46;;;;;;;39.37;28.67;;;;;;;12.13;55.14;101686.88;5033896;28;20561;-78
2021/03/25 08:50:23;;;;;;;38.70;28.50;;;;;;;11.98;55.42;101690.06;5062527;28;20534;-77
2021/03/25 08:52:49;;;;;;;44.00;28.10;;;;;;;12.34;54.05;101682.88;5073333;28;20419;-78
2021/03/25 08:55:23;;;;;;;37.37;28.80;;;;;;;12.22;54.56;101688.78;5075145;28;20421;-79
2021/03/25 08:57:52;;;;;;;37.30;27.60;;;;;;;11.99;55.55;101685.72;5060516;28;20440;-78
2021/03/25 09:00:24;;;;;;;39.60;29.80;;;;;;;12.50;53.55;101681.41;5047365;28;20399;-79
2021/03/25 09:02:53;;;;;;;33.87;27.03;;;;;;;13.47;50.81;101686.34;5058026;28;20413;-80
2021/03/25 09:05:21;;;;;;;36.63;27.30;;;;;;;14.02;49.82;101684.34;5059385;28;20412;-80
2021/03/25 09:07:48;;;;;;;32.63;25.87;;;;;;;14.89;47.54;101673.78;5059481;28;20458;-77
2021/03/25 09:10:31;;;;;;;31.80;26.00;;;;;;;16.28;43.86;101655.94;5073122;28;20530;-76
2021/03/25 09:12:56;;;;;;;32.80;27.37;;;;;;;16.70;42.65;101655.94;5043673;28;20468;-76
2021/03/25 09:15:21;;;;;;;30.83;26.63;;;;;;;16.98;41.27;101654.16;5059867;28;20418;-79
2021/03/25 09:17:50;;;;;;;27.97;25.03;;;;;;;17.43;40.62;101656.66;5064544;28;20196;-78
2021/03/25 09:20:25;;;;;;;30.40;27.03;;;;;;;16.58;42.01;101659.44;5076705;28;20219;-76
2021/03/25 09:22:56;;;;;;;32.53;27.40;;;;;;;16.84;42.08;101650.63;5048476;28;20431;-76
2021/03/25 09:25:27;;;;;;;32.13;28.73;;;;;;;17.94;39.83;101650.25;5074087;28;20890;-76
2021/03/25 09:28:02;;;;;;;32.73;28.17;;;;;;;18.40;38.25;101646.41;5057521;28;20565;-79
2021/03/25 09:30:38;;;;;;;30.10;26.00;;;;;;;18.47;38.67;101646.34;5059069;28;20457;-75
2021/03/25 09:33:39;;;;;;;31.70;28.30;;;;;;;18.43;38.58;101649.91;5060780;28;20426;-78
2021/03/25 09:36:16;;;;;;;28.87;25.50;;;;;;;17.92;38.67;101646.75;5052842;28;20697;-75
2021/03/25 09:38:42;;;;;;;29.77;25.83;;;;;;;19.67;36.55;101637.97;5066951;28;20474;-76
2021/03/25 09:41:16;;;;;;;27.90;24.97;;;;;;;18.82;37.22;101639.84;5058784;28;20728;-74
2021/03/25 09:43:42;;;;;;;26.53;23.73;;;;;;;19.15;37.81;101637.75;5058152;28;20178;-75
2021/03/25 09:46:38;;;;;;;33.27;27.30;;;;;;;19.30;37.19;101641.97;5041623;28;20472;-75
2021/03/25 09:49:27;;;;;;;28.83;25.37;;;;;;;18.88;37.86;101630.13;5076547;28;20485;-76
2021/03/25 09:52:07;;;;;;;28.23;24.00;;;;;;;19.76;36.01;101632.56;5070631;28;20712;-79
2021/03/25 09:54:35;;;;;;;32.30;24.90;;;;;;;19.44;35.96;101628.56;5078740;28;20418;-73
2021/03/25 09:57:26;;;;;;;29.03;26.03;;;;;;;20.12;34.55;101625.00;5064018;28;20770;-74
2021/03/25 09:59:55;;;;;;;29.33;26.23;;;;;;;19.21;37.36;101630.66;5057991;28;20584;-81
2021/03/25 10:02:49;;;;;;;28.23;23.70;;;;;;;20.01;35.66;101618.97;5069440;28;20457;-78
2021/03/25 10:05:17;;;;;;;27.40;24.70;;;;;;;19.61;35.71;101627.50;5076603;28;20427;-76
2021/03/25 10:07:42;;;;;;;30.43;26.90;;;;;;;19.88;35.81;101618.31;5065045;28;20746;-75
2021/03/25 10:10:23;;;;;;;34.47;25.17;;;;;;;19.10;38.11;101622.84;5065620;28;20458;-75
2021/03/25 10:12:51;;;;;;;29.13;24.30;;;;;;;19.76;36.12;101626.41;5058183;28;20173;-73
2021/03/25 10:15:41;;;;;;;27.77;23.87;;;;;;;19.76;36.73;101629.91;5057853;28;20439;-75
2021/03/25 10:18:16;;;;;;;25.87;23.07;;;;;;;19.30;37.03;101617.31;5061013;28;20443;-74
2021/03/25 10:20:47;;;;;;;25.63;22.93;;;;;;;19.62;36.26;101621.28;5057593;28;20481;-75
2021/03/25 10:23:40;;;;;;;25.47;21.40;;;;;;;19.64;36.06;101620.38;5076368;28;20553;-75
2021/03/25 10:26:11;;;;;;;25.97;23.20;;;;;;;19.46;35.94;101612.72;5077935;28;20493;-75
2021/03/25 10:28:46;;;;;;;29.83;24.10;;;;;;;20.38;34.46;101602.50;5078321;28;20462;-74
2021/03/25 10:31:22;;;;;;;23.77;21.33;;;;;;;19.63;35.45;101609.81;5043765;28;20728;-74
2021/03/25 10:33:49;;;;;;;23.17;20.53;;;;;;;19.33;35.99;101604.06;5059736;28;20443;-74
2021/03/25 10:36:17;;;;;;;24.20;21.53;;;;;;;20.13;34.83;101596.75;5061987;28;20845;-74
2021/03/25 10:38:45;;;;;;;22.73;20.17;;;;;;;20.21;34.53;101594.84;5056936;28;20785;-76
2021/03/25 10:41:23;;;;;;;21.50;19.30;;;;;;;19.70;35.45;101598.28;5057318;28;20412;-75
2021/03/25 10:43:51;;;;;;;22.80;20.60;;;;;;;21.07;33.39;101592.41;5040962;28;20454;-75
2021/03/25 10:46:33;;;;;;;23.50;21.10;;;;;;;21.22;33.05;101580.59;5057541;28;20420;-75
2021/03/25 10:49:01;;;;;;;21.67;19.47;;;;;;;19.90;34.93;101587.38;5045730;28;20520;-75
2021/03/25 10:51:27;;;;;;;21.63;18.83;;;;;;;18.84;35.97;101581.72;5066738;28;20450;-75
2021/03/25 10:53:55;;;;;;;22.67;20.13;;;;;;;20.58;33.89;101573.00;5058718;28;20442;-76
2021/03/25 10:56:25;;;;;;;20.97;18.70;;;;;;;19.76;34.29;101574.34;5047318;28;20439;-74
2021/03/25 10:59:02;;;;;;;20.33;18.40;;;;;;;20.34;33.54;101572.53;5060158;28;20816;-75
2021/03/25 11:01:30;;;;;;;21.00;18.77;;;;;;;20.30;33.93;101567.34;5076249;28;20444;-75
2021/03/25 11:03:56;;;;;;;20.67;18.63;;;;;;;19.20;35.72;101561.06;5058037;28;20458;-75
2021/03/25 11:06:32;;;;;;;21.17;17.57;;;;;;;20.09;33.03;101558.84;5060669;28;20443;-75
2021/03/25 11:09:08;;;;;;;19.13;17.23;;;;;;;19.77;34.45;101549.66;5057630;28;20482;-75
2021/03/25 11:11:36;;;;;;;20.87;18.60;;;;;;;20.05;33.72;101557.16;5070817;28;20449;-77
2021/03/25 11:14:31;;;;;;;24.87;16.97;;;;;;;21.61;31.07;101551.47;5045027;28;20924;-75
2021/03/25 11:17:14;;;;;;;20.97;18.87;;;;;;;20.79;32.68;101566.44;5054420;28;20495;-74
2021/03/25 11:19:41;;;;;;;19.70;17.07;;;;;;;20.23;33.07;101561.28;5059875;28;20690;-74
2021/03/25 11:22:10;;;;;;;19.63;17.20;;;;;;;20.57;32.23;101562.44;5063420;28;20447;-74
2021/03/25 11:24:35;;;;;;;17.40;15.67;;;;;;;20.08;32.80;101566.81;5056204;28;20734;-74
2021/03/25 11:27:05;;;;;;;19.83;17.73;;;;;;;19.07;35.70;101576.19;5070692;28;20450;-75
2021/03/25 11:29:35;;;;;;;20.73;17.93;;;;;;;17.88;38.00;101568.50;5061590;28;20185;-77
2021/03/25 11:32:11;;;;;;;20.30;18.30;;;;;;;17.58;37.73;101573.09;5044245;28;20520;-76
2021/03/25 11:34:39;;;;;;;20.40;16.13;;;;;;;17.40;38.72;101566.16;5061595;28;20477;-75
2021/03/25 11:37:16;;;;;;;21.37;17.43;;;;;;;17.28;38.40;101567.97;5060509;28;20454;-75
2021/03/25 11:39:56;;;;;;;20.83;16.70;;;;;;;17.60;38.02;101564.31;5061428;28;20435;-75
2021/03/25 11:42:22;;;;;;;20.20;18.00;;;;;;;18.82;36.28;101551.78;5072983;28;20430;-75
2021/03/25 11:44:48;;;;;;;19.80;17.70;;;;;;;19.10;34.78;101554.13;5072526;28;20434;-76